Time;durP1;ratioP1;P1;durP2;ratioP2;P2;SDS_P1;SDS_P2;PMS_P1;PMS_P2;Temp;Humidity;BMP_temperature;BMP_pressure;BME280_temperature;BME280_humidity;BME280_pressure;Samples;Min_cycle;Max_cycle;Signal;HPM_P1;HPM_P2
2023/01/01 00:01:26;;;;;;;37.50;24.50;;;;;;;5.31;82.68;98424.81;5046722;28;20322;-73
2023/01/01 00:03:55;;;;;;;42.60;26.70;;;;;;;5.48;81.80;98430.75;5049844;28;20655;-72
2023/01/01 00:06:22;;;;;;;41.17;25.20;;;;;;;5.47;81.62;98418.75;5049670;28;20218;-72
2023/01/01 00:10:26;;;;;;;37.63;24.90;;;;;;;5.54;82.08;98416.16;5050024;28;20315;-72
2023/01/01 00:11:36;;;;;;;39.37;25.47;;;;;;;5.55;80.52;98425.59;5047226;28;20762;-74
2023/01/01 00:14:03;;;;;;;35.63;24.50;;;;;;;5.59;81.47;98413.56;5050539;28;20659;-72
2023/01/01 00:16:38;;;;;;;43.13;26.27;;;;;;;5.58;80.17;98423.03;5049655;28;20204;-72
2023/01/01 00:19:05;;;;;;;44.40;26.93;;;;;;;5.52;80.70;98429.88;5050182;28;20261;-72
2023/01/01 00:21:32;;;;;;;42.03;26.37;;;;;;;5.49;81.25;98438.47;5050206;28;20587;-73
2023/01/01 00:23:59;;;;;;;42.90;25.47;;;;;;;5.58;80.91;98432.44;5049394;28;20203;-72
2023/01/01 00:26:26;;;;;;;38.30;23.73;;;;;;;5.66;80.66;98428.13;5050443;28;20262;-73
2023/01/01 00:29:01;;;;;;;40.53;25.03;;;;;;;5.60;79.63;98418.72;5049046;28;20761;-73
2023/01/01 00:31:28;;;;;;;43.03;26.30;;;;;;;5.60;79.12;98416.16;5048633;28;20204;-73
2023/01/01 00:33:56;;;;;;;46.33;26.63;;;;;;;5.55;79.45;98427.28;5039215;28;20204;-73
2023/01/01 00:36:25;;;;;;;38.63;25.00;;;;;;;5.55;78.98;98435.00;5030136;28;20198;-73
2023/01/01 00:38:53;;;;;;;35.27;22.83;;;;;;;5.51;78.22;98430.72;5028503;28;20210;-74
2023/01/01 00:41:21;;;;;;;36.87;23.23;;;;;;;5.31;78.82;98435.09;5029703;28;20562;-71
2023/01/01 00:43:48;;;;;;;37.50;24.33;;;;;;;5.13;78.11;98424.88;5030253;28;20672;-72
2023/01/01 00:46:17;;;;;;;33.17;22.30;;;;;;;5.03;78.36;98443.72;5028896;28;20201;-73
2023/01/01 00:48:44;;;;;;;43.20;23.23;;;;;;;4.87;78.43;98428.31;5029784;28;20228;-73
2023/01/01 00:51:11;;;;;;;38.23;24.67;;;;;;;5.00;79.38;98453.97;5027999;28;20195;-73
2023/01/01 00:53:43;;;;;;;42.67;25.77;;;;;;;4.74;80.50;98429.19;5029975;28;20184;-73
2023/01/01 00:56:10;;;;;;;46.27;27.53;;;;;;;4.63;81.85;98441.19;5029496;28;20207;-73
2023/01/01 00:58:37;;;;;;;44.50;27.83;;;;;;;4.71;81.80;98442.03;5029434;28;20198;-73
2023/01/01 01:01:04;;;;;;;43.10;24.73;;;;;;;4.73;82.37;98435.19;5029942;28;20196;-72
2023/01/01 01:03:31;;;;;;;44.13;26.33;;;;;;;4.86;81.75;98439.44;5028510;28;20231;-73
2023/01/01 01:06:01;;;;;;;40.93;25.47;;;;;;;4.77;81.75;98434.31;5030055;28;20238;-73
2023/01/01 01:08:31;;;;;;;43.13;26.40;;;;;;;4.86;82.31;98436.03;5028611;28;20239;-72
2023/01/01 01:11:09;;;;;;;42.23;25.07;;;;;;;4.72;82.14;98425.75;5029621;28;20698;-73
2023/01/01 01:13:36;;;;;;;37.37;24.93;;;;;;;4.63;83.34;98425.78;5028995;28;20203;-72
2023/01/01 01:16:12;;;;;;;44.60;24.67;;;;;;;4.58;83.73;98419.78;5028823;28;20226;-72
2023/01/01 01:18:39;;;;;;;42.73;25.30;;;;;;;4.58;83.58;98417.22;5029715;28;20215;-73
2023/01/01 01:21:07;;;;;;;42.23;25.23;;;;;;;4.41;84.25;98398.41;5028662;28;20207;-74
2023/01/01 01:23:35;;;;;;;43.37;24.40;;;;;;;4.37;84.67;98395.88;5029352;28;20235;-74
2023/01/01 01:26:10;;;;;;;38.63;23.87;;;;;;;4.46;85.32;98419.78;5028403;28;20202;-72
2023/01/01 01:28:38;;;;;;;35.40;21.50;;;;;;;4.41;85.41;98400.97;5028918;28;20312;-74
2023/01/01 01:31:14;;;;;;;37.23;23.70;;;;;;;4.54;84.63;98400.13;5029108;28;20226;-74
2023/01/01 01:33:43;;;;;;;38.10;24.67;;;;;;;4.60;84.58;98410.38;5027356;28;20218;-73
2023/01/01 01:36:10;;;;;;;39.93;24.77;;;;;;;4.74;84.64;98418.09;5029352;28;20194;-73
2023/01/01 01:38:38;;;;;;;41.03;22.73;;;;;;;4.74;84.31;98424.06;5027954;28;20195;-75
2023/01/01 01:41:06;;;;;;;38.10;23.73;;;;;;;4.72;84.35;98420.63;5027848;28;20288;-75
2023/01/01 01:43:33;;;;;;;40.57;21.97;;;;;;;4.74;84.46;98425.78;5028537;28;20235;-75
2023/01/01 01:46:05;;;;;;;34.47;20.90;;;;;;;4.60;83.42;98423.22;5029424;28;20206;-73
2023/01/01 01:48:41;;;;;;;34.73;23.00;;;;;;;4.53;83.53;98428.34;5026450;28;20281;-74
2023/01/01 01:51:12;;;;;;;32.77;21.13;;;;;;;4.22;83.58;98383.91;5028729;28;20191;-72
2023/01/01 01:53:44;;;;;;;35.33;22.60;;;;;;;4.41;83.72;98418.91;5028816;28;20293;-73
2023/01/01 01:56:17;;;;;;;33.80;22.13;;;;;;;4.32;84.17;98421.50;5027787;28;20187;-74
2023/01/01 01:58:44;;;;;;;33.90;22.03;;;;;;;4.39;83.29;98419.81;5028783;28;20191;-74
2023/01/01 02:01:12;;;;;;;41.47;24.53;;;;;;;4.52;83.33;98421.50;5027828;28;20282;-73
2023/01/01 02:03:44;;;;;;;41.77;24.57;;;;;;;4.53;82.66;98418.97;5028840;28;20192;-74
2023/01/01 02:06:11;;;;;;;42.03;25.10;;;;;;;4.40;82.64;98418.94;5028124;28;20295;-74
2023/01/01 02:08:37;;;;;;;38.63;25.07;;;;;;;4.14;83.38;98413.78;5028075;28;20646;-73
2023/01/01 02:11:05;;;;;;;44.03;25.87;;;;;;;4.31;82.93;98422.34;5029137;28;20222;-73
2023/01/01 02:13:32;;;;;;;42.10;25.93;;;;;;;4.29;82.33;98421.47;5027681;28;20280;-74
2023/01/01 02:16:10;;;;;;;39.53;25.73;;;;;;;4.09;82.50;98392.41;5039187;28;20212;-73
2023/01/01 02:19:02;;;;;;;41.73;25.57;;;;;;;4.23;82.79;98429.16;5027347;28;20272;-73
2023/01/01 02:21:34;;;;;;;38.37;23.63;;;;;;;4.32;82.37;98416.38;5028171;28;20691;-74
2023/01/01 02:24:16;;;;;;;37.20;24.23;;;;;;;4.37;81.67;98421.50;5028567;28;20289;-73
2023/01/01 02:26:56;;;;;;;42.90;25.57;;;;;;;4.52;82.09;98427.50;5027241;28;20672;-72
2023/01/01 02:29:41;;;;;;;38.17;25.90;;;;;;;4.31;81.64;98424.06;5027880;28;20222;-73
2023/01/01 02:32:14;;;;;;;42.20;25.03;;;;;;;4.19;82.50;98421.47;5027910;28;20207;-73
2023/01/01 02:34:50;;;;;;;47.23;27.03;;;;;;;4.07;82.71;98425.75;5027926;28;20196;-72
2023/01/01 02:37:20;;;;;;;48.43;28.80;;;;;;;4.06;82.93;98424.00;5028416;28;20196;-73
2023/01/01 02:39:58;;;;;;;50.33;27.57;;;;;;;4.01;82.60;98414.63;5027286;28;20195;-72
2023/01/01 02:42:28;;;;;;;40.90;26.73;;;;;;;3.95;82.82;98419.72;5028310;28;20729;-73
2023/01/01 02:44:58;;;;;;;39.33;24.67;;;;;;;4.03;83.14;98420.59;5027311;28;20277;-72
2023/01/01 02:47:25;;;;;;;40.57;24.03;;;;;;;3.95;83.18;98423.16;5027064;28;20224;-72
2023/01/01 02:50:10;;;;;;;40.23;25.17;;;;;;;3.98;83.46;98422.28;5028062;28;20227;-72
2023/01/01 02:53:15;;;;;;;41.93;23.87;;;;;;;3.93;83.78;98413.75;5025681;28;20210;-72
2023/01/01 02:56:18;;;;;;;37.47;23.10;;;;;;;3.83;84.08;98414.59;5028458;28;20202;-72
2023/01/01 03:02:19;;;;;;;42.67;21.83;;;;;;;3.48;85.81;98421.28;5027131;28;20585;-72
2023/01/01 03:05:04;;;;;;;35.00;21.33;;;;;;;3.44;85.58;98422.13;5041426;28;20221;-72
2023/01/01 03:07:59;;;;;;;34.73;21.90;;;;;;;3.37;86.00;98416.13;5048099;28;20661;-73
2023/01/01 03:10:58;;;;;;;34.60;21.73;;;;;;;3.34;87.09;98417.81;5046805;28;20272;-73
2023/01/01 03:13:53;;;;;;;34.23;20.93;;;;;;;3.19;87.07;98398.94;5047645;28;20209;-72
2023/01/01 03:16:39;;;;;;;34.40;20.47;;;;;;;3.25;88.05;98406.69;5051680;28;20197;-73
2023/01/01 03:19:25;;;;;;;33.97;19.77;;;;;;;3.37;87.81;98415.25;5050781;28;20787;-72
2023/01/01 03:22:02;;;;;;;28.30;19.43;;;;;;;3.38;88.43;98417.81;5051588;28;20669;-72
2023/01/01 03:24:45;;;;;;;31.33;20.17;;;;;;;3.51;88.28;98421.28;5051298;28;20720;-71
2023/01/01 03:27:22;;;;;;;30.70;18.57;;;;;;;3.52;88.23;98420.44;5050557;28;20291;-72
2023/01/01 03:29:53;;;;;;;29.73;17.97;;;;;;;3.53;88.56;98419.59;5051407;28;20320;-72
2023/01/01 03:32:58;;;;;;;28.53;18.30;;;;;;;3.63;88.25;98413.63;5050247;28;20195;-71
2023/01/01 03:35:16;;;;;;;31.53;18.73;;;;;;;3.77;88.25;98412.00;5050856;28;20202;-72
2023/01/01 03:37:47;;;;;;;30.63;18.47;;;;;;;3.80;88.12;98415.41;5051265;28;20673;-73
2023/01/01 03:40:17;;;;;;;35.63;17.97;;;;;;;3.92;88.17;98418.00;5050080;28;20193;-72
2023/01/01 03:42:54;;;;;;;31.70;18.30;;;;;;;3.94;87.66;98412.88;5051292;28;20226;-73
2023/01/01 03:45:32;;;;;;;30.07;17.63;;;;;;;3.99;87.80;98413.75;5050019;28;20198;-73
2023/01/01 03:47:59;;;;;;;30.90;18.60;;;;;;;4.08;87.42;98419.75;5050068;28;20202;-73
2023/01/01 03:50:44;;;;;;;29.70;18.80;;;;;;;4.12;87.22;98426.59;5050576;28;20666;-73
2023/01/01 03:53:16;;;;;;;28.70;18.43;;;;;;;4.14;86.77;98421.50;5048944;28;20207;-74
2023/01/01 03:55:50;;;;;;;29.47;17.50;;;;;;;4.13;85.86;98400.13;5050990;28;20270;-74
2023/01/01 03:58:25;;;;;;;29.77;18.03;;;;;;;4.23;86.05;98411.22;5049965;28;20661;-74
2023/01/01 04:01:03;;;;;;;23.83;16.87;;;;;;;4.23;85.54;98390.72;5051076;28;20189;-74
2023/01/01 04:03:33;;;;;;;28.63;16.83;;;;;;;4.31;85.22;98406.94;5050601;28;20241;-73
2023/01/01 04:06:02;;;;;;;31.03;17.73;;;;;;;4.31;85.02;98409.53;5050073;28;20182;-74
2023/01/01 04:08:31;;;;;;;28.67;17.70;;;;;;;4.18;84.56;98424.91;5050617;28;20293;-74
2023/01/01 04:12:00;;;;;;;26.73;16.13;;;;;;;4.18;84.04;98418.06;5049966;28;20598;-75
2023/01/01 04:13:50;;;;;;;32.10;18.97;;;;;;;3.90;85.46;98427.41;5050624;28;20186;-73
2023/01/01 04:16:17;;;;;;;32.47;18.20;;;;;;;3.73;86.90;98423.94;5050561;28;20562;-74
2023/01/01 04:18:44;;;;;;;31.43;17.63;;;;;;;3.73;87.44;98426.50;5049856;28;20196;-74
2023/01/01 04:21:11;;;;;;;25.90;17.83;;;;;;;3.78;87.44;98423.94;5050624;28;20178;-74
2023/01/01 04:23:38;;;;;;;29.43;16.90;;;;;;;3.83;87.36;98422.25;5049475;28;20205;-74
2023/01/01 04:26:13;;;;;;;27.67;17.60;;;;;;;3.87;86.95;98434.22;5050366;28;20274;-74
2023/01/01 04:28:41;;;;;;;25.73;16.60;;;;;;;3.97;86.71;98435.97;5048921;28;20656;-75
2023/01/01 04:31:09;;;;;;;24.73;15.57;;;;;;;3.99;86.40;98430.00;5050458;28;20201;-75
2023/01/01 04:33:36;;;;;;;24.97;16.60;;;;;;;3.94;86.31;98436.81;5049799;28;20256;-76
2023/01/01 04:36:05;;;;;;;25.13;15.07;;;;;;;3.86;86.67;98440.19;5049766;28;20690;-74
2023/01/01 04:38:36;;;;;;;22.90;16.07;;;;;;;3.75;87.24;98441.88;5050303;28;20665;-74
2023/01/01 04:41:04;;;;;;;23.43;15.47;;;;;;;3.79;87.57;98441.03;5049288;28;20194;-75
2023/01/01 04:43:31;;;;;;;26.03;16.07;;;;;;;3.47;87.75;98417.00;5050150;28;20297;-74
2023/01/01 04:46:00;;;;;;;21.87;15.20;;;;;;;3.67;87.79;98444.41;5049012;28;20221;-74
2023/01/01 04:48:28;;;;;;;25.13;15.50;;;;;;;3.64;88.50;98454.66;5050008;28;20589;-73
2023/01/01 04:50:59;;;;;;;20.73;13.77;;;;;;;3.62;88.13;98458.91;5049732;28;20191;-73
2023/01/01 04:53:32;;;;;;;21.47;13.37;;;;;;;3.56;87.99;98452.91;5048243;28;20869;-74
2023/01/01 04:56:13;;;;;;;21.00;14.73;;;;;;;3.54;88.34;98452.91;5050090;28;20189;-73
2023/01/01 04:58:41;;;;;;;22.27;14.00;;;;;;;3.51;88.83;98452.00;5048597;28;20281;-73
2023/01/01 05:01:18;;;;;;;21.73;12.93;;;;;;;3.40;89.09;98441.72;5050051;28;20274;-75
2023/01/01 05:03:46;;;;;;;20.37;12.87;;;;;;;3.51;88.64;98449.44;5049000;28;20673;-74
2023/01/01 05:06:14;;;;;;;20.63;13.37;;;;;;;3.58;88.63;98451.19;5049261;28;20206;-75
2023/01/01 05:08:44;;;;;;;20.07;13.87;;;;;;;3.63;88.68;98462.31;5043296;28;20201;-73
2023/01/01 05:11:13;;;;;;;21.23;12.87;;;;;;;3.58;88.18;98462.31;5048890;28;20276;-72
2023/01/01 05:13:43;;;;;;;19.93;12.47;;;;;;;3.64;88.46;98461.47;5049761;28;20200;-72
2023/01/01 05:16:12;;;;;;;19.73;12.20;;;;;;;3.68;88.40;98461.50;5043927;28;20226;-73
2023/01/01 05:18:40;;;;;;;19.00;12.33;;;;;;;3.78;88.11;98464.94;5039601;28;20222;-71
2023/01/01 05:21:10;;;;;;;20.30;11.53;;;;;;;3.83;87.90;98471.78;5028950;28;20670;-72
2023/01/01 05:23:37;;;;;;;18.53;11.67;;;;;;;3.94;87.79;98466.69;5028892;28;20393;-74
2023/01/01 05:26:26;;;;;;;23.53;12.90;;;;;;;3.99;87.17;98459.88;5029462;28;20191;-74
2023/01/01 05:28:54;;;;;;;22.40;13.17;;;;;;;4.07;86.84;98464.19;5027836;28;20235;-73
2023/01/01 05:31:24;;;;;;;20.07;14.07;;;;;;;4.10;86.13;98471.03;5029346;28;20203;-73
2023/01/01 05:33:52;;;;;;;22.27;15.30;;;;;;;4.05;85.67;98459.91;5028204;28;20213;-73
2023/01/01 05:36:22;;;;;;;22.93;14.43;;;;;;;4.15;85.45;98466.75;5028794;28;20321;-74
2023/01/01 05:38:50;;;;;;;23.70;15.43;;;;;;;4.08;84.25;98465.88;5029037;28;20235;-73
2023/01/01 05:41:19;;;;;;;24.10;14.33;;;;;;;3.88;84.11;98461.56;5028472;28;20225;-72
2023/01/01 05:43:46;;;;;;;19.87;14.50;;;;;;;3.68;84.47;98468.31;5029179;28;20230;-72
2023/01/01 05:46:21;;;;;;;21.80;14.57;;;;;;;3.57;85.80;98469.97;5028180;28;20216;-73
2023/01/01 05:48:49;;;;;;;22.37;15.03;;;;;;;3.62;85.64;98473.41;5028836;28;20199;-73
2023/01/01 05:51:22;;;;;;;23.70;14.67;;;;;;;3.61;85.04;98480.22;5028221;28;20209;-73
2023/01/01 05:53:50;;;;;;;23.40;14.70;;;;;;;3.57;84.37;98463.13;5028694;28;20219;-74
2023/01/01 05:56:17;;;;;;;21.13;14.10;;;;;;;3.65;84.34;98463.16;5029091;28;20431;-73
2023/01/01 05:58:45;;;;;;;22.63;14.37;;;;;;;3.69;84.54;98468.31;5027911;28;20228;-73
2023/01/01 06:01:23;;;;;;;23.37;13.67;;;;;;;3.63;83.92;98457.19;5028792;28;20210;-73
2023/01/01 06:03:52;;;;;;;22.80;14.30;;;;;;;3.67;83.45;98467.44;5047543;28;20241;-73
2023/01/01 06:06:21;;;;;;;22.33;14.13;;;;;;;3.70;82.76;98469.19;5048776;28;20690;-74
2023/01/01 06:08:50;;;;;;;21.23;14.97;;;;;;;3.64;83.32;98466.59;5041235;28;20254;-73
2023/01/01 06:11:17;;;;;;;26.27;16.20;;;;;;;3.49;83.76;98471.63;5033670;28;20691;-72
2023/01/01 06:13:44;;;;;;;24.27;16.23;;;;;;;3.33;84.65;98474.97;5028482;28;20224;-74
2023/01/01 06:16:12;;;;;;;24.77;16.73;;;;;;;3.21;84.93;98476.59;5034793;28;20648;-76
2023/01/01 06:18:40;;;;;;;23.27;15.67;;;;;;;3.08;85.78;98472.28;5048422;28;20241;-75
2023/01/01 06:21:15;;;;;;;23.37;15.43;;;;;;;2.90;86.51;98461.06;5047587;28;20677;-73
2023/01/01 06:23:43;;;;;;;26.13;14.67;;;;;;;3.01;87.65;98478.19;5048180;28;20188;-73
2023/01/01 06:26:15;;;;;;;25.57;16.27;;;;;;;2.81;88.82;98428.59;5047604;28;20262;-74
2023/01/01 06:28:43;;;;;;;23.53;14.63;;;;;;;3.18;89.25;98471.47;5047697;28;20320;-73
2023/01/01 06:31:13;;;;;;;23.73;14.27;;;;;;;3.41;88.77;98465.63;5048311;28;20230;-73
2023/01/01 06:33:41;;;;;;;27.50;15.83;;;;;;;3.57;88.60;98464.84;5044699;28;20256;-73
2023/01/01 06:36:10;;;;;;;24.83;15.07;;;;;;;3.78;87.63;98464.94;5047926;28;20198;-73
2023/01/01 06:38:40;;;;;;;23.73;15.00;;;;;;;4.01;87.45;98474.44;5045957;28;20648;-73
2023/01/01 06:41:11;;;;;;;24.83;15.23;;;;;;;4.19;85.77;98473.59;5046861;28;20199;-73
2023/01/01 06:43:38;;;;;;;22.80;14.97;;;;;;;4.27;85.78;98469.34;5035115;28;20283;-73
2023/01/01 06:46:06;;;;;;;21.07;13.73;;;;;;;4.49;84.19;98477.94;5042972;28;20196;-73
2023/01/01 06:48:35;;;;;;;26.57;15.23;;;;;;;4.52;83.86;98476.22;5048198;28;20190;-73
2023/01/01 06:51:10;;;;;;;29.33;17.17;;;;;;;4.62;83.86;98479.63;5050885;28;20227;-74
2023/01/01 06:53:37;;;;;;;25.80;16.83;;;;;;;4.50;83.45;98448.84;5052021;28;20293;-72
2023/01/01 06:56:05;;;;;;;25.77;17.53;;;;;;;4.86;83.63;98480.50;5051374;28;20542;-73
2023/01/01 06:58:32;;;;;;;30.90;20.27;;;;;;;4.94;83.26;98494.22;5052051;28;20196;-74
2023/01/01 07:01:08;;;;;;;27.53;18.60;;;;;;;5.14;82.79;98495.88;5051415;28;20706;-73
2023/01/01 07:03:36;;;;;;;30.30;19.00;;;;;;;5.02;82.65;98483.06;5049632;28;20196;-72
2023/01/01 07:06:04;;;;;;;27.97;17.23;;;;;;;5.16;82.11;98489.91;5041214;28;20273;-73
2023/01/01 07:08:33;;;;;;;25.47;15.17;;;;;;;5.20;82.07;98495.88;5029489;28;20202;-73
2023/01/01 07:11:01;;;;;;;26.60;15.60;;;;;;;5.39;82.33;98493.28;5031724;28;20236;-72
2023/01/01 07:13:30;;;;;;;19.43;12.37;;;;;;;5.32;81.93;98496.72;5030549;28;20599;-73
2023/01/01 07:15:58;;;;;;;17.87;11.53;;;;;;;5.40;82.43;98483.88;5031741;28;20196;-73
2023/01/01 07:18:25;;;;;;;19.33;12.30;;;;;;;5.36;82.39;98484.72;5036250;28;20210;-73
2023/01/01 07:20:58;;;;;;;21.00;12.63;;;;;;;5.33;82.83;98475.31;5042224;28;20196;-72
2023/01/01 07:23:27;;;;;;;21.50;11.77;;;;;;;5.40;81.73;98489.00;5039175;28;20205;-72
2023/01/01 07:25:55;;;;;;;27.70;17.97;;;;;;;5.32;82.73;98473.59;5044068;28;20213;-72
2023/01/01 07:28:23;;;;;;;21.23;13.93;;;;;;;5.34;81.78;98487.28;5050650;28;20266;-72
2023/01/01 07:30:52;;;;;;;22.97;13.80;;;;;;;5.44;82.18;98495.84;5047425;28;20227;-74
2023/01/01 07:33:22;;;;;;;17.90;12.63;;;;;;;5.48;82.18;98493.25;5040973;28;20542;-73
2023/01/01 07:35:49;;;;;;;19.00;12.80;;;;;;;5.54;81.61;98497.53;5042321;28;20201;-73
2023/01/01 07:38:16;;;;;;;15.93;11.13;;;;;;;5.59;81.50;98500.94;5050219;28;20199;-75
2023/01/01 07:40:43;;;;;;;13.97;9.80;;;;;;;5.55;81.71;98486.38;5050966;28;20208;-73
2023/01/01 07:43:11;;;;;;;14.57;10.60;;;;;;;5.60;82.67;98500.94;5049397;28;20672;-74
2023/01/01 07:45:38;;;;;;;14.10;10.57;;;;;;;5.57;82.53;98495.81;5050695;28;20196;-74
2023/01/01 07:48:08;;;;;;;14.80;10.47;;;;;;;5.52;82.31;98465.84;5048062;28;20193;-75
2023/01/01 07:50:37;;;;;;;13.90;9.83;;;;;;;5.75;81.33;98502.59;5049123;28;20324;-74
2023/01/01 07:53:04;;;;;;;14.53;10.43;;;;;;;6.00;81.32;98504.25;5049903;28;20188;-75
2023/01/01 07:55:32;;;;;;;17.90;11.27;;;;;;;5.98;80.72;98510.25;5049493;28;20188;-74
2023/01/01 07:57:59;;;;;;;19.33;12.23;;;;;;;6.03;80.90;98517.09;5050183;28;20197;-73
2023/01/01 08:00:26;;;;;;;17.30;11.17;;;;;;;6.15;80.38;98508.47;5048548;28;20270;-74
2023/01/01 08:02:54;;;;;;;18.07;12.63;;;;;;;6.35;79.74;98520.34;5050100;28;20201;-74
2023/01/01 08:05:21;;;;;;;20.00;12.00;;;;;;;6.46;79.29;98517.72;5049713;28;20200;-74
2023/01/01 08:07:53;;;;;;;16.73;10.33;;;;;;;6.51;78.75;98518.56;5050821;28;20556;-73
2023/01/01 08:10:21;;;;;;;17.00;10.70;;;;;;;6.57;79.61;98516.78;5048693;28;20228;-74
2023/01/01 08:12:48;;;;;;;14.33;10.50;;;;;;;6.85;78.73;98519.19;5047502;28;20221;-73
2023/01/01 08:15:15;;;;;;;19.73;13.63;;;;;;;6.85;77.39;98508.88;5045104;28;20668;-73
2023/01/01 08:17:43;;;;;;;17.33;11.07;;;;;;;6.99;76.79;98512.19;5049609;28;20572;-74
2023/01/01 08:20:12;;;;;;;17.53;10.83;;;;;;;7.10;77.28;98525.84;5050420;28;20186;-74
2023/01/01 08:22:40;;;;;;;22.37;14.60;;;;;;;7.19;77.53;98529.19;5049423;28;20239;-73
2023/01/01 08:25:08;;;;;;;21.37;13.97;;;;;;;7.31;76.12;98528.25;5050471;28;20229;-73
2023/01/01 08:27:35;;;;;;;18.07;12.70;;;;;;;7.43;76.16;98524.69;5049921;28;20272;-73
2023/01/01 08:30:02;;;;;;;14.50;10.40;;;;;;;7.44;75.62;98516.94;5043133;28;20261;-73
2023/01/01 08:32:29;;;;;;;18.60;12.10;;;;;;;7.60;75.67;98528.81;5030368;28;20210;-73
2023/01/01 08:34:56;;;;;;;16.57;11.77;;;;;;;7.67;75.22;98520.13;5039146;28;20240;-73
2023/01/01 08:37:23;;;;;;;16.43;11.37;;;;;;;7.66;76.10;98522.75;5050093;28;20217;-72
2023/01/01 08:39:52;;;;;;;13.67;10.17;;;;;;;7.86;75.53;98528.53;5048906;28;20200;-73
2023/01/01 08:42:19;;;;;;;14.60;10.30;;;;;;;7.97;74.95;98532.72;5049030;28;20192;-73
2023/01/01 08:44:46;;;;;;;12.17;8.80;;;;;;;8.11;74.51;98517.06;5049595;28;20706;-73
2023/01/01 08:47:25;;;;;;;12.07;8.63;;;;;;;8.19;74.15;98505.78;5049735;28;20582;-73
2023/01/01 08:49:52;;;;;;;12.33;8.97;;;;;;;8.21;74.52;98513.47;5049897;28;20228;-74
2023/01/01 08:52:20;;;;;;;12.37;8.30;;;;;;;8.28;74.96;98519.47;5047628;28;20731;-73
2023/01/01 08:54:47;;;;;;;13.87;9.17;;;;;;;8.42;74.09;98522.69;5049891;28;20245;-74
2023/01/01 08:57:14;;;;;;;10.20;8.30;;;;;;;8.58;73.48;98519.88;5034645;28;20207;-73
2023/01/01 08:59:41;;;;;;;12.53;8.53;;;;;;;8.62;73.51;98515.53;5029934;28;20725;-72
2023/01/01 09:02:10;;;;;;;11.50;8.30;;;;;;;8.88;73.14;98518.59;5027694;28;20248;-73
2023/01/01 09:04:37;;;;;;;11.90;8.87;;;;;;;8.97;72.56;98516.72;5029563;28;20195;-74
2023/01/01 09:07:04;;;;;;;13.47;9.23;;;;;;;9.10;72.65;98519.09;5029804;28;20280;-73
2023/01/01 09:09:31;;;;;;;10.90;7.93;;;;;;;9.11;72.70;98507.91;5028590;28;20351;-72
2023/01/01 09:12:04;;;;;;;12.57;9.00;;;;;;;9.23;71.64;98503.38;5028684;28;20228;-73
2023/01/01 09:14:33;;;;;;;11.77;9.00;;;;;;;9.37;71.07;98490.19;5028207;28;20242;-74
2023/01/01 09:17:00;;;;;;;10.07;7.53;;;;;;;9.52;69.80;98495.94;5029588;28;20209;-74
2023/01/01 09:19:27;;;;;;;10.03;7.67;;;;;;;9.59;70.16;98494.94;5028888;28;20617;-74
2023/01/01 09:21:55;;;;;;;9.00;7.33;;;;;;;9.67;69.69;98484.44;5029036;28;20213;-73
2023/01/01 09:24:22;;;;;;;8.67;7.07;;;;;;;9.74;69.16;98457.59;5029959;28;20691;-74
2023/01/01 09:26:49;;;;;;;8.50;5.93;;;;;;;9.89;68.90;98482.31;5026842;28;20585;-74
2023/01/01 09:29:20;;;;;;;10.13;6.40;;;;;;;9.99;68.60;98489.00;5027799;28;20274;-74
2023/01/01 09:31:48;;;;;;;10.17;6.70;;;;;;;10.12;68.35;98477.56;5028140;28;20273;-73
2023/01/01 09:34:16;;;;;;;7.90;6.67;;;;;;;10.13;68.16;98480.09;5028072;28;20725;-73
2023/01/01 09:36:45;;;;;;;7.53;5.70;;;;;;;10.26;68.30;98483.28;5028363;28;20221;-72
2023/01/01 09:39:14;;;;;;;6.53;5.87;;;;;;;10.45;67.61;98480.25;5028398;28;20245;-73
2023/01/01 09:42:05;;;;;;;9.20;6.23;;;;;;;10.59;67.25;98482.56;5028659;28;20198;-73
2023/01/01 09:45:10;;;;;;;7.77;5.70;;;;;;;10.71;66.41;98471.91;5027969;28;20616;-72
2023/01/01 09:47:45;;;;;;;5.10;4.60;;;;;;;10.84;65.77;98475.06;5026184;28;20223;-74
2023/01/01 09:50:16;;;;;;;7.50;6.10;;;;;;;10.95;65.77;98466.13;5037647;28;20233;-72
2023/01/01 09:52:54;;;;;;;8.93;6.37;;;;;;;11.09;65.12;98471.81;5046109;28;20196;-74
2023/01/01 09:55:47;;;;;;;7.90;5.73;;;;;;;11.02;64.79;98449.53;5033140;28;20280;-73
2023/01/01 09:58:15;;;;;;;11.87;7.63;;;;;;;11.07;64.66;98458.03;5047568;28;20551;-73
2023/01/01 10:00:45;;;;;;;14.10;8.63;;;;;;;11.20;64.03;98448.22;5048214;28;20184;-74
2023/01/01 10:03:19;;;;;;;10.40;7.93;;;;;;;11.37;63.85;98438.25;5046758;28;20188;-74
2023/01/01 10:06:26;;;;;;;9.40;7.27;;;;;;;11.56;62.51;98447.22;5047484;28;20298;-75
2023/01/01 10:08:56;;;;;;;7.37;5.50;;;;;;;11.76;62.22;98446.72;5044535;28;20258;-74
2023/01/01 10:11:32;;;;;;;10.07;6.00;;;;;;;11.73;62.48;98431.22;5047228;28;20220;-74
2023/01/01 10:14:00;;;;;;;9.40;6.70;;;;;;;11.87;62.11;98442.09;5046216;28;20203;-74
2023/01/01 10:16:40;;;;;;;9.53;5.87;;;;;;;11.92;61.35;98442.81;5046766;28;20648;-74
2023/01/01 10:19:35;;;;;;;10.60;6.20;;;;;;;12.09;61.16;98438.84;5047084;28;20208;-74
2023/01/01 10:22:08;;;;;;;9.43;5.70;;;;;;;12.11;60.72;98425.81;5046808;28;20291;-73
2023/01/01 10:24:42;;;;;;;7.13;5.40;;;;;;;12.16;60.85;98422.16;5047459;28;20196;-73
2023/01/01 10:27:22;;;;;;;8.53;5.60;;;;;;;12.31;60.58;98420.00;5047332;28;20833;-74
2023/01/01 10:29:51;;;;;;;7.03;4.97;;;;;;;12.39;60.09;98418.00;5047883;28;20187;-75
2023/01/01 10:32:30;;;;;;;7.57;4.73;;;;;;;12.54;59.67;98426.19;5046734;28;20201;-74
2023/01/01 10:34:58;;;;;;;8.47;5.67;;;;;;;12.50;59.60;98411.59;5048080;28;20216;-74
2023/01/01 10:37:30;;;;;;;8.27;5.90;;;;;;;12.62;58.82;98407.75;5045431;28;20203;-74
2023/01/01 10:39:57;;;;;;;10.00;6.20;;;;;;;12.53;58.15;98395.91;5046007;28;20233;-74
2023/01/01 10:42:25;;;;;;;8.93;6.80;;;;;;;12.65;58.49;98412.88;5048202;28;20231;-74
2023/01/01 10:44:52;;;;;;;13.43;9.60;;;;;;;12.69;58.47;98415.31;5047345;28;20602;-75
2023/01/01 10:47:27;;;;;;;12.33;8.60;;;;;;;12.78;57.88;98407.22;5048530;28;20285;-74
2023/01/01 10:49:59;;;;;;;9.67;7.17;;;;;;;12.88;57.32;98403.41;5047048;28;20176;-74
2023/01/01 10:52:35;;;;;;;12.17;7.83;;;;;;;12.92;57.92;98394.59;5048313;28;20234;-75
2023/01/01 10:55:04;;;;;;;9.57;6.67;;;;;;;12.99;57.46;98396.09;5047743;28;20231;-74
2023/01/01 10:57:39;;;;;;;6.77;5.40;;;;;;;13.13;57.55;98398.25;5029777;28;20217;-76
2023/01/01 11:00:17;;;;;;;7.70;6.10;;;;;;;13.20;56.91;98398.91;5047832;28;20577;-74
2023/01/01 11:02:44;;;;;;;9.63;7.60;;;;;;;12.99;57.98;98353.63;5045839;28;20231;-74
2023/01/01 11:05:20;;;;;;;10.27;7.47;;;;;;;13.15;57.84;98390.44;5047583;28;20606;-74
2023/01/01 11:07:48;;;;;;;11.20;8.00;;;;;;;13.15;57.09;98387.81;5039257;28;20271;-74
2023/01/01 11:10:19;;;;;;;11.23;7.93;;;;;;;13.17;57.00;98383.41;5043191;28;20233;-74
2023/01/01 11:12:47;;;;;;;11.00;7.77;;;;;;;13.04;56.89;98342.19;5036737;28;20190;-73
2023/01/01 11:15:36;;;;;;;10.33;6.43;;;;;;;13.31;57.26;98387.25;5046068;28;20194;-74
2023/01/01 11:18:05;;;;;;;7.03;5.60;;;;;;;13.44;57.00;98382.41;5030207;28;20884;-74
2023/01/01 11:20:33;;;;;;;9.33;5.97;;;;;;;13.56;56.41;98382.00;5038309;28;20648;-73
2023/01/01 11:23:17;;;;;;;8.60;5.27;;;;;;;13.63;55.82;98375.66;5045196;28;20635;-74
2023/01/01 11:26:13;;;;;;;7.07;5.40;;;;;;;13.70;56.23;98375.38;5045525;28;20222;-74
2023/01/01 11:28:40;;;;;;;9.30;5.83;;;;;;;13.83;56.13;98376.63;5036131;28;20312;-75
2023/01/01 11:31:24;;;;;;;7.60;5.37;;;;;;;13.66;55.84;98355.56;5038565;28;20322;-73
2023/01/01 11:34:53;;;;;;;6.40;5.20;;;;;;;13.84;56.05;98367.91;5009399;28;20702;-75
2023/01/01 11:37:28;;;;;;;7.30;5.50;;;;;;;13.97;56.13;98368.31;5036269;28;20195;-73
2023/01/01 11:39:57;;;;;;;9.33;5.87;;;;;;;13.99;56.40;98365.63;5036719;28;20283;-74
2023/01/01 11:42:27;;;;;;;11.50;6.10;;;;;;;14.13;56.98;98365.94;5045162;28;20201;-74
2023/01/01 11:45:01;;;;;;;7.50;5.67;;;;;;;14.04;56.40;98359.34;5038984;28;20285;-74
2023/01/01 11:47:34;;;;;;;7.07;4.87;;;;;;;14.00;56.81;98354.28;5044564;28;20208;-75
2023/01/01 11:50:24;;;;;;;6.93;5.23;;;;;;;13.83;57.48;98349.72;5042545;28;20270;-75
2023/01/01 11:52:53;;;;;;;7.27;5.73;;;;;;;14.00;56.83;98352.53;5040124;28;20225;-75